createdAt,value
2022-10-18T00:00:30.130Z,13.17
2022-10-18T00:01:33.088Z,13.37
2022-10-18T00:02:36.044Z,13.37
2022-10-18T00:03:39.627Z,13.28
2022-10-18T00:04:42.643Z,13.18
2022-10-18T00:05:45.507Z,13.20
2022-10-18T00:06:48.535Z,13.16
2022-10-18T00:07:51.382Z,13.19
2022-10-18T00:08:54.228Z,13.15
2022-10-18T00:09:57.120Z,13.04
2022-10-18T00:11:00.207Z,13.02
2022-10-18T00:12:03.201Z,13.15
2022-10-18T00:13:06.106Z,13.12
2022-10-18T00:14:09.569Z,13.20
2022-10-18T00:15:12.680Z,13.28
2022-10-18T00:16:17.566Z,13.23
2022-10-18T00:17:20.474Z,13.19
2022-10-18T00:18:24.063Z,13.11
2022-10-18T00:19:29.198Z,13.27
2022-10-18T00:20:32.480Z,13.23
2022-10-18T00:21:35.511Z,13.17
2022-10-18T00:22:40.578Z,13.11
2022-10-18T00:23:44.255Z,13.11
2022-10-18T00:24:47.230Z,13.22
2022-10-18T00:25:50.120Z,13.13
2022-10-18T00:26:53.161Z,13.01
2022-10-18T00:27:55.932Z,13.06
2022-10-18T00:29:04.588Z,13.11
2022-10-18T00:30:07.887Z,13.08
2022-10-18T00:31:19.461Z,13.03
2022-10-18T00:32:22.497Z,12.97
2022-10-18T00:33:25.362Z,13.01
2022-10-18T00:34:28.156Z,13.13
2022-10-18T00:35:31.094Z,13.12
2022-10-18T00:36:35.162Z,13.13
2022-10-18T00:37:37.997Z,12.90
2022-10-18T00:39:01.583Z,12.89
2022-10-18T00:40:05.275Z,12.93
2022-10-18T00:41:10.616Z,12.86
2022-10-18T00:42:22.125Z,12.71
2022-10-18T00:43:24.779Z,12.68
2022-10-18T00:44:28.313Z,12.62
2022-10-18T00:45:31.102Z,12.66
2022-10-18T00:46:38.301Z,12.51
2022-10-18T00:47:41.603Z,12.41
2022-10-18T00:48:44.591Z,12.43
2022-10-18T00:49:53.244Z,12.45
2022-10-18T00:50:56.010Z,12.48
2022-10-18T00:52:03.160Z,12.51
2022-10-18T00:53:10.329Z,12.45
2022-10-18T00:54:19.194Z,12.43
2022-10-18T00:55:22.454Z,12.37
2022-10-18T00:56:25.908Z,12.28
2022-10-18T00:57:32.307Z,12.42
2022-10-18T00:58:36.351Z,12.38
2022-10-18T00:59:39.509Z,12.31
2022-10-18T01:00:42.748Z,12.31
2022-10-18T01:01:47.398Z,12.13
2022-10-18T01:02:52.234Z,12.28
2022-10-18T01:03:56.047Z,12.28
2022-10-18T01:04:58.704Z,12.15
2022-10-18T01:06:01.339Z,12.17
2022-10-18T01:07:22.983Z,12.16
2022-10-18T01:08:34.812Z,12.13
2022-10-18T01:10:09.612Z,12.13
2022-10-18T01:11:15.852Z,12.42
2022-10-18T01:12:41.650Z,12.32
2022-10-18T01:13:47.129Z,12.33
2022-10-18T01:15:14.104Z,12.15
2022-10-18T01:16:44.131Z,12.25
2022-10-18T01:18:06.414Z,12.36
2022-10-18T01:19:17.613Z,12.28
2022-10-18T01:20:48.652Z,12.29
2022-10-18T01:21:53.977Z,12.39
2022-10-18T01:23:12.006Z,12.38
2022-10-18T01:24:32.904Z,12.41
2022-10-18T01:25:57.330Z,12.62
2022-10-18T01:27:24.369Z,12.60
2022-10-18T01:28:28.423Z,12.61
2022-10-18T01:30:04.441Z,12.66
2022-10-18T01:31:21.457Z,12.77
2022-10-18T01:32:31.414Z,12.74
2022-10-18T01:33:49.515Z,12.86
2022-10-18T01:34:56.172Z,12.79
2022-10-18T01:36:28.181Z,12.77
2022-10-18T01:37:33.296Z,12.66
2022-10-18T01:38:38.810Z,12.64
2022-10-18T01:39:45.451Z,12.63
2022-10-18T01:40:50.581Z,12.65
2022-10-18T01:41:54.750Z,12.70
2022-10-18T01:42:57.678Z,12.59
2022-10-18T01:44:03.776Z,12.57
2022-10-18T01:45:08.773Z,12.59
2022-10-18T01:46:16.178Z,12.66
2022-10-18T01:47:20.532Z,12.48
2022-10-18T01:48:24.132Z,12.37
2022-10-18T01:49:27.573Z,12.49
2022-10-18T01:50:32.663Z,12.55
2022-10-18T01:51:35.637Z,12.52
2022-10-18T01:52:51.250Z,12.46
2022-10-18T01:53:54.475Z,12.60
2022-10-18T01:54:59.012Z,12.65
2022-10-18T01:56:19.891Z,12.64
2022-10-18T01:57:42.169Z,12.57
2022-10-18T01:58:57.288Z,12.55
2022-10-18T02:00:19.389Z,12.58
2022-10-18T02:01:46.006Z,12.68
2022-10-18T02:02:56.805Z,12.68
2022-10-18T02:04:11.739Z,12.65
2022-10-18T02:05:33.530Z,12.64
2022-10-18T02:06:44.144Z,12.49
2022-10-18T02:08:22.944Z,12.49
2022-10-18T02:09:43.175Z,12.52
2022-10-18T02:10:57.048Z,12.52
2022-10-18T02:12:02.282Z,12.54
2022-10-18T02:13:05.329Z,12.43
2022-10-18T02:14:11.572Z,12.60
2022-10-18T02:15:19.489Z,12.54
2022-10-18T02:16:45.067Z,12.41
2022-10-18T02:17:47.772Z,12.46
2022-10-18T02:20:32.738Z,12.43
2022-10-18T02:21:38.292Z,12.39
2022-10-18T02:22:43.093Z,12.34
2022-10-18T02:23:47.333Z,12.46
2022-10-18T02:24:54.408Z,12.40
2022-10-18T02:25:57.060Z,12.39
2022-10-18T02:26:59.770Z,12.53
2022-10-18T02:28:04.611Z,12.48
2022-10-18T02:29:08.665Z,12.43
2022-10-18T02:30:16.253Z,12.55
2022-10-18T02:31:27.331Z,12.54
2022-10-18T02:32:38.934Z,12.47
2022-10-18T02:33:48.971Z,12.30
2022-10-18T02:35:20.328Z,12.21
2022-10-18T02:36:28.117Z,12.21
2022-10-18T02:37:35.537Z,12.15
2022-10-18T02:38:41.650Z,12.02
2022-10-18T02:39:48.252Z,12.10
2022-10-18T02:40:54.213Z,12.15
2022-10-18T02:41:58.092Z,12.00
2022-10-18T02:43:00.726Z,11.93
2022-10-18T02:44:03.523Z,11.93
2022-10-18T02:45:06.994Z,11.95
2022-10-18T02:46:09.746Z,11.92
2022-10-18T02:47:12.984Z,11.99
2022-10-18T02:48:15.692Z,12.03
2022-10-18T02:49:18.505Z,12.04
2022-10-18T02:50:21.174Z,12.07
2022-10-18T02:51:23.888Z,12.13
2022-10-18T02:52:26.617Z,12.20
2022-10-18T02:53:29.221Z,12.22
2022-10-18T02:54:31.974Z,12.31
2022-10-18T02:55:34.610Z,12.23
2022-10-18T02:56:37.412Z,12.17
2022-10-18T02:57:40.029Z,12.13
2022-10-18T02:58:42.840Z,12.06
2022-10-18T02:59:45.620Z,12.18
2022-10-18T03:00:50.963Z,12.16
2022-10-18T03:01:53.618Z,12.15
2022-10-18T03:02:56.347Z,12.12
2022-10-18T03:03:59.097Z,12.11
2022-10-18T03:05:01.829Z,12.15
2022-10-18T03:06:04.839Z,12.09
2022-10-18T03:07:07.844Z,12.05
2022-10-18T03:08:10.989Z,12.05
2022-10-18T03:09:13.739Z,11.99
2022-10-18T03:10:16.616Z,12.12
2022-10-18T03:11:19.321Z,12.09
2022-10-18T03:12:22.006Z,11.97
2022-10-18T03:13:24.736Z,12.08
2022-10-18T03:14:27.606Z,12.06
2022-10-18T03:15:30.166Z,12.01
2022-10-18T03:16:34.172Z,12.01
2022-10-18T03:17:36.751Z,11.97
2022-10-18T03:18:40.264Z,11.92
2022-10-18T03:19:42.891Z,11.86
2022-10-18T03:20:45.586Z,11.89
2022-10-18T03:21:48.370Z,11.75
2022-10-18T03:22:51.051Z,11.70
2022-10-18T03:23:53.877Z,11.55
2022-10-18T03:24:56.499Z,11.45
2022-10-18T03:25:59.194Z,11.62
2022-10-18T03:27:02.593Z,11.63
2022-10-18T03:28:09.323Z,11.59
2022-10-18T03:29:12.412Z,11.42
2022-10-18T03:30:15.030Z,11.41
2022-10-18T03:31:18.655Z,11.42
2022-10-18T03:32:21.329Z,11.28
2022-10-18T03:33:23.932Z,11.23
2022-10-18T03:34:26.730Z,11.37
2022-10-18T03:35:29.451Z,11.31
2022-10-18T03:36:33.931Z,11.25
2022-10-18T03:37:37.245Z,11.14
2022-10-18T03:38:40.940Z,10.91
2022-10-18T03:39:43.657Z,11.14
2022-10-18T03:40:46.342Z,11.24
2022-10-18T03:41:49.090Z,11.14
2022-10-18T03:42:51.642Z,11.10
2022-10-18T03:43:54.291Z,11.14
2022-10-18T03:44:57.208Z,11.11
2022-10-18T03:46:00.447Z,11.05
2022-10-18T03:47:03.168Z,10.88
2022-10-18T03:48:06.409Z,10.79
2022-10-18T03:49:08.987Z,10.91
2022-10-18T03:50:11.929Z,10.93
2022-10-18T03:51:14.541Z,10.95
2022-10-18T03:52:17.246Z,10.93
2022-10-18T03:53:19.850Z,10.78
2022-10-18T03:54:22.650Z,10.83
2022-10-18T03:55:25.487Z,10.86
2022-10-18T03:56:28.140Z,10.91
2022-10-18T03:57:30.835Z,10.80
2022-10-18T03:59:41.328Z,10.85
2022-10-18T04:00:44.130Z,10.75
2022-10-18T04:01:50.375Z,10.61
2022-10-18T04:02:55.115Z,10.60
2022-10-18T04:03:58.729Z,10.54
2022-10-18T04:05:01.451Z,10.59
2022-10-18T04:06:04.211Z,10.48
2022-10-18T04:07:06.945Z,10.42
2022-10-18T04:08:09.674Z,10.45
2022-10-18T04:09:12.619Z,10.66
2022-10-18T04:10:15.489Z,10.58
2022-10-18T04:11:19.191Z,10.47
2022-10-18T04:12:22.091Z,10.37
2022-10-18T04:13:24.784Z,10.37
2022-10-18T04:14:27.446Z,10.41
2022-10-18T04:15:30.052Z,10.48
2022-10-18T04:16:32.816Z,10.39
2022-10-18T04:17:35.551Z,10.34
2022-10-18T04:18:38.532Z,10.23
2022-10-18T04:19:41.969Z,10.25
2022-10-18T04:20:44.916Z,10.27
2022-10-18T04:21:47.523Z,10.18
2022-10-18T04:22:50.659Z,10.29
2022-10-18T04:23:53.310Z,10.35
2022-10-18T04:24:57.044Z,10.17
2022-10-18T04:26:03.299Z,10.11
2022-10-18T04:27:07.071Z,10.15
2022-10-18T04:28:09.875Z,10.01
2022-10-18T04:29:12.644Z,9.91
2022-10-18T04:30:15.763Z,9.80
2022-10-18T04:31:18.329Z,10.11
2022-10-18T04:32:21.197Z,10.07
2022-10-18T04:33:23.830Z,10.09
2022-10-18T04:34:26.752Z,9.93
2022-10-18T04:35:29.282Z,9.96
2022-10-18T04:36:32.444Z,9.93
2022-10-18T04:37:36.038Z,10.08
2022-10-18T04:39:51.279Z,10.11
2022-10-18T04:40:56.520Z,10.09
2022-10-18T04:41:59.175Z,10.04
2022-10-18T04:43:01.702Z,9.89
2022-10-18T04:44:04.288Z,9.84
2022-10-18T04:45:07.504Z,9.83
2022-10-18T04:46:10.257Z,9.78
2022-10-18T04:47:16.449Z,9.83
2022-10-18T04:48:19.455Z,9.70
2022-10-18T04:49:22.039Z,9.69
2022-10-18T04:50:24.650Z,9.74
2022-10-18T04:51:28.726Z,9.75
2022-10-18T04:52:31.465Z,9.66
2022-10-18T04:53:34.005Z,9.74
2022-10-18T04:54:37.026Z,9.81
2022-10-18T04:55:39.748Z,9.81
2022-10-18T04:56:42.364Z,9.75
2022-10-18T04:57:45.407Z,9.60
2022-10-18T04:58:48.272Z,9.67
2022-10-18T04:59:50.905Z,9.68
2022-10-18T05:00:53.678Z,9.67
2022-10-18T05:01:56.427Z,9.59
2022-10-18T05:02:59.272Z,9.61
2022-10-18T05:04:01.950Z,9.67
2022-10-18T05:05:09.130Z,9.82
2022-10-18T05:06:14.507Z,9.71
2022-10-18T05:07:18.018Z,9.76
2022-10-18T05:08:20.995Z,9.88
2022-10-18T05:09:24.948Z,9.88
2022-10-18T05:10:27.553Z,9.73
2022-10-18T05:11:30.133Z,9.74
2022-10-18T05:12:33.168Z,9.80
2022-10-18T05:13:35.952Z,9.84
2022-10-18T05:14:38.601Z,9.85
2022-10-18T05:15:41.247Z,9.82
2022-10-18T05:16:43.821Z,9.82
2022-10-18T05:17:46.731Z,9.79
2022-10-18T05:18:50.607Z,9.82
2022-10-18T05:19:53.224Z,9.81
2022-10-18T05:20:55.905Z,9.66
2022-10-18T05:23:01.199Z,9.72
2022-10-18T05:24:04.129Z,9.74
2022-10-18T05:25:07.291Z,9.83
2022-10-18T05:26:09.876Z,9.99
2022-10-18T05:27:12.457Z,10.00
2022-10-18T05:28:37.989Z,10.00
2022-10-18T05:29:38.656Z,10.04
2022-10-18T05:30:41.667Z,10.01
2022-10-18T05:31:44.291Z,10.21
2022-10-18T05:32:46.895Z,10.18
2022-10-18T05:33:49.481Z,10.10
2022-10-18T05:34:52.240Z,9.98
2022-10-18T05:35:54.889Z,10.08
2022-10-18T05:36:58.464Z,10.20
2022-10-18T05:38:06.087Z,10.11
2022-10-18T05:39:08.831Z,10.00
2022-10-18T05:40:11.890Z,9.94
2022-10-18T05:41:14.785Z,10.05
2022-10-18T05:42:17.430Z,10.00
2022-10-18T05:43:20.134Z,9.98
2022-10-18T05:44:22.806Z,9.93
2022-10-18T05:45:25.614Z,9.95
2022-10-18T05:46:28.854Z,9.95
2022-10-18T05:47:32.142Z,9.90
2022-10-18T05:48:35.578Z,10.02
2022-10-18T05:49:38.202Z,9.83
2022-10-18T05:50:44.351Z,10.03
2022-10-18T05:51:46.904Z,10.20
2022-10-18T05:52:49.544Z,10.24
2022-10-18T05:53:53.194Z,10.33
2022-10-18T05:54:55.905Z,10.23
2022-10-18T05:56:01.919Z,10.34
2022-10-18T05:57:05.073Z,10.38
2022-10-18T05:58:11.340Z,10.30
2022-10-18T05:59:14.020Z,10.24
2022-10-18T06:00:17.497Z,10.19
2022-10-18T06:01:20.800Z,10.21
2022-10-18T06:02:23.669Z,10.25
2022-10-18T06:03:27.855Z,10.05
2022-10-18T06:04:30.780Z,10.21
2022-10-18T06:05:33.380Z,10.44
2022-10-18T06:06:37.532Z,10.38
2022-10-18T06:07:40.110Z,10.42
2022-10-18T06:08:44.053Z,10.46
2022-10-18T06:09:46.691Z,10.46
2022-10-18T06:10:49.302Z,10.43
2022-10-18T06:11:52.017Z,10.47
2022-10-18T06:12:54.707Z,10.50
2022-10-18T06:13:58.242Z,10.48
2022-10-18T06:15:00.757Z,10.56
2022-10-18T06:16:03.262Z,10.48
2022-10-18T06:17:05.961Z,10.56
2022-10-18T06:18:08.531Z,10.58
2022-10-18T06:19:11.319Z,10.56
2022-10-18T06:20:13.901Z,10.61
2022-10-18T06:21:17.628Z,10.60
2022-10-18T06:22:20.434Z,10.65
2022-10-18T06:23:23.037Z,10.81
2022-10-18T06:24:26.864Z,10.87
2022-10-18T06:25:29.455Z,10.81
2022-10-18T06:26:32.009Z,10.85
2022-10-18T06:27:35.583Z,10.94
2022-10-18T06:28:38.876Z,10.97
2022-10-18T06:29:41.863Z,10.99
2022-10-18T06:30:44.820Z,10.99
2022-10-18T06:31:47.494Z,11.13
2022-10-18T06:32:50.147Z,11.31
2022-10-18T06:33:52.728Z,11.26
2022-10-18T06:34:55.325Z,11.23
2022-10-18T06:36:00.306Z,11.24
2022-10-18T06:37:03.353Z,11.19
2022-10-18T06:38:06.427Z,11.20
2022-10-18T06:39:09.063Z,11.25
2022-10-18T06:40:12.247Z,11.28
2022-10-18T06:41:15.410Z,11.49
2022-10-18T06:42:20.417Z,11.54
2022-10-18T06:43:25.843Z,11.65
2022-10-18T06:44:28.433Z,11.65
2022-10-18T06:45:31.147Z,11.69
2022-10-18T06:46:33.895Z,11.68
2022-10-18T06:47:36.776Z,11.80
2022-10-18T06:48:40.015Z,11.84
2022-10-18T06:49:42.769Z,11.99
2022-10-18T06:50:58.530Z,12.00
2022-10-18T06:52:01.267Z,11.89
2022-10-18T06:53:06.531Z,12.09
2022-10-18T06:54:24.535Z,12.17
2022-10-18T06:55:27.277Z,12.30
2022-10-18T06:56:30.851Z,12.45
2022-10-18T06:57:33.527Z,12.57
2022-10-18T06:58:37.071Z,12.74
2022-10-18T06:59:39.779Z,12.77
2022-10-18T07:00:42.511Z,12.87
2022-10-18T07:01:45.334Z,13.01
2022-10-18T07:02:50.627Z,13.12
2022-10-18T07:03:54.873Z,13.18
2022-10-18T07:04:57.629Z,13.29
2022-10-18T07:06:05.160Z,13.40
2022-10-18T07:07:08.024Z,13.54
2022-10-18T07:08:10.805Z,13.60
2022-10-18T07:09:13.517Z,13.71
2022-10-18T07:10:16.465Z,13.81
2022-10-18T07:11:21.892Z,13.87
2022-10-18T07:12:24.768Z,13.85
2022-10-18T07:13:33.115Z,14.04
2022-10-18T07:14:36.326Z,14.12
2022-10-18T07:15:39.099Z,14.21
2022-10-18T07:16:41.845Z,14.25
2022-10-18T07:17:48.063Z,14.36
2022-10-18T07:18:51.857Z,14.43
2022-10-18T07:19:54.715Z,14.56
2022-10-18T07:20:57.438Z,14.70
2022-10-18T07:22:00.106Z,14.72
2022-10-18T07:23:03.552Z,14.74
2022-10-18T07:24:06.553Z,14.84
2022-10-18T07:25:12.579Z,14.96
2022-10-18T07:26:18.455Z,15.16
2022-10-18T07:27:21.894Z,15.18
2022-10-18T07:28:29.078Z,15.25
2022-10-18T07:29:32.246Z,15.27
2022-10-18T07:30:34.990Z,15.34
2022-10-18T07:31:41.530Z,15.59
2022-10-18T07:32:44.134Z,15.73
2022-10-18T07:33:46.947Z,15.90
2022-10-18T07:34:49.605Z,15.98
2022-10-18T07:35:52.249Z,16.01
2022-10-18T07:36:54.914Z,16.20
2022-10-18T07:37:57.618Z,16.45
2022-10-18T07:39:00.200Z,16.59
2022-10-18T07:40:03.474Z,16.63
2022-10-18T07:41:07.957Z,16.68
2022-10-18T07:42:10.591Z,16.75
2022-10-18T07:43:13.215Z,16.86
2022-10-18T07:44:19.414Z,16.92
2022-10-18T07:45:22.367Z,17.03
2022-10-18T07:46:25.299Z,17.29
2022-10-18T07:47:30.124Z,17.33
2022-10-18T07:48:35.503Z,17.56
2022-10-18T07:49:38.490Z,17.82
2022-10-18T07:50:41.237Z,17.94
2022-10-18T07:51:43.966Z,17.70
2022-10-18T07:52:46.662Z,17.94
2022-10-18T07:53:49.722Z,18.04
2022-10-18T07:54:52.288Z,18.27
2022-10-18T07:55:59.333Z,18.31
2022-10-18T07:57:04.306Z,18.28
2022-10-18T07:58:06.970Z,18.27
2022-10-18T07:59:10.414Z,18.25
2022-10-18T08:00:13.747Z,18.04
2022-10-18T08:01:16.409Z,18.30
2022-10-18T08:02:19.178Z,18.41
2022-10-18T08:03:21.874Z,18.24
2022-10-18T08:04:24.516Z,18.41
2022-10-18T08:05:28.573Z,18.68
2022-10-18T08:06:31.356Z,18.54
2022-10-18T08:07:34.408Z,18.62
2022-10-18T08:08:39.259Z,18.61
2022-10-18T08:09:41.834Z,18.86
2022-10-18T08:10:44.499Z,18.98
2022-10-18T08:11:47.186Z,18.70
2022-10-18T08:12:50.693Z,18.73
2022-10-18T08:13:53.965Z,19.14
2022-10-18T08:14:56.653Z,19.36
2022-10-18T08:16:04.493Z,19.52
2022-10-18T08:17:07.137Z,19.74
2022-10-18T08:18:10.928Z,19.97
2022-10-18T08:19:13.453Z,19.58
2022-10-18T08:20:29.917Z,19.42
2022-10-18T08:21:33.673Z,19.61
2022-10-18T08:22:36.379Z,19.72
2022-10-18T08:23:40.222Z,19.60
2022-10-18T08:24:42.776Z,19.80
2022-10-18T08:25:46.848Z,19.86
2022-10-18T08:26:50.214Z,19.62
2022-10-18T08:27:53.039Z,19.46
2022-10-18T08:29:17.474Z,19.86
2022-10-18T08:30:19.836Z,19.98
2022-10-18T08:31:22.510Z,19.82
2022-10-18T08:32:28.740Z,19.89
2022-10-18T08:33:31.605Z,20.38
2022-10-18T08:35:58.469Z,20.31
2022-10-18T08:37:01.660Z,20.55
2022-10-18T08:38:04.434Z,20.49
2022-10-18T08:39:07.001Z,19.88
2022-10-18T08:40:13.473Z,20.07
2022-10-18T08:41:32.791Z,20.14
2022-10-18T08:43:00.203Z,20.17
2022-10-18T08:44:20.990Z,20.65
2022-10-18T08:45:41.063Z,21.11
2022-10-18T08:46:48.650Z,21.43
2022-10-18T08:47:54.101Z,20.65
2022-10-18T08:48:57.286Z,20.22
2022-10-18T08:50:04.945Z,20.33
2022-10-18T08:51:32.262Z,20.48
2022-10-18T08:52:46.073Z,21.01
2022-10-18T08:53:59.657Z,20.42
2022-10-18T08:55:10.138Z,20.91
2022-10-18T08:56:19.209Z,20.35
2022-10-18T08:57:22.600Z,20.72
2022-10-18T08:58:30.958Z,20.90
2022-10-18T08:59:41.281Z,20.83
2022-10-18T09:00:51.871Z,20.72
2022-10-18T09:02:05.154Z,20.41
2022-10-18T09:03:16.312Z,20.81
2022-10-18T09:04:27.834Z,20.80
2022-10-18T09:05:36.210Z,20.74
2022-10-18T09:06:44.464Z,20.44
2022-10-18T09:08:14.710Z,20.22
2022-10-18T09:09:50.964Z,20.45
2022-10-18T09:10:59.685Z,20.77
2022-10-18T09:12:26.262Z,21.01
2022-10-18T09:13:47.525Z,20.90
2022-10-18T09:15:11.983Z,20.59
2022-10-18T09:16:59.704Z,20.94
2022-10-18T09:18:13.948Z,20.50
2022-10-18T09:19:57.771Z,21.20
2022-10-18T09:21:05.548Z,21.13
2022-10-18T09:22:18.872Z,21.53
2022-10-18T09:23:29.735Z,21.14
2022-10-18T09:24:46.315Z,21.60
2022-10-18T09:25:53.406Z,21.71
2022-10-18T09:27:14.440Z,22.09
2022-10-18T09:28:59.110Z,21.62
2022-10-18T09:30:54.780Z,21.39
2022-10-18T09:32:33.745Z,21.62
2022-10-18T09:33:43.293Z,21.72
2022-10-18T09:35:06.524Z,21.96
2022-10-18T09:36:14.504Z,21.85
2022-10-18T09:37:21.952Z,21.57
2022-10-18T09:38:31.029Z,21.41
2022-10-18T09:39:38.240Z,21.85
2022-10-18T09:40:53.796Z,21.86
2022-10-18T09:42:15.237Z,22.53
2022-10-18T09:43:23.122Z,22.29
2022-10-18T09:44:33.668Z,22.68
2022-10-18T09:45:40.021Z,22.31
2022-10-18T09:46:49.220Z,23.17
2022-10-18T09:48:03.230Z,22.94
2022-10-18T09:49:21.485Z,23.35
2022-10-18T09:50:38.020Z,22.69
2022-10-18T09:51:42.856Z,22.78
2022-10-18T09:53:08.581Z,22.81
2022-10-18T09:54:44.110Z,22.49
2022-10-18T09:56:02.694Z,23.13
2022-10-18T09:57:12.676Z,22.92
2022-10-18T09:58:17.145Z,23.03
2022-10-18T09:59:42.694Z,22.77
2022-10-18T10:00:49.823Z,23.28
2022-10-18T10:01:52.684Z,22.84
2022-10-18T10:02:55.437Z,22.70
2022-10-18T10:03:58.466Z,22.33
2022-10-18T10:05:01.155Z,21.90
2022-10-18T10:06:13.169Z,22.02
2022-10-18T10:07:24.291Z,22.14
2022-10-18T10:08:33.945Z,22.85
2022-10-18T10:09:55.521Z,22.72
2022-10-18T10:10:58.165Z,23.17
2022-10-18T10:12:01.020Z,23.69
2022-10-18T10:13:03.627Z,23.99
2022-10-18T10:14:23.244Z,22.97
2022-10-18T10:15:31.235Z,22.12
2022-10-18T10:16:56.925Z,22.29
2022-10-18T10:18:03.793Z,22.73
2022-10-18T10:19:06.910Z,23.46
2022-10-18T10:20:21.919Z,23.31
2022-10-18T10:22:40.686Z,23.03
2022-10-18T10:23:54.772Z,22.89
2022-10-18T10:25:03.527Z,23.44
2022-10-18T10:26:23.577Z,23.19
2022-10-18T10:27:43.658Z,23.38
2022-10-18T10:28:49.151Z,24.10
2022-10-18T10:29:56.780Z,24.36
2022-10-18T10:31:27.283Z,24.67
2022-10-18T10:32:43.132Z,25.17
2022-10-18T10:33:47.789Z,24.54
2022-10-18T10:34:51.084Z,24.89
2022-10-18T10:35:59.910Z,24.88
2022-10-18T10:37:05.330Z,24.21
2022-10-18T10:38:22.384Z,24.45
2022-10-18T10:39:25.227Z,24.68
2022-10-18T10:40:34.191Z,24.45
2022-10-18T10:41:38.425Z,24.61
2022-10-18T10:43:32.869Z,24.22
2022-10-18T10:44:37.026Z,24.83
2022-10-18T10:46:15.463Z,24.13
2022-10-18T10:47:37.745Z,24.94
2022-10-18T10:49:08.406Z,25.07
2022-10-18T10:50:25.658Z,23.88
2022-10-18T10:51:31.696Z,23.91
2022-10-18T10:52:34.524Z,23.68
2022-10-18T10:53:42.709Z,23.04
2022-10-18T10:54:51.138Z,23.04
2022-10-18T10:55:56.853Z,22.53
2022-10-18T10:57:12.781Z,23.63
2022-10-18T10:58:18.495Z,24.12
2022-10-18T10:59:22.979Z,24.61
2022-10-18T11:00:44.626Z,24.10
2022-10-18T11:01:50.208Z,24.67
2022-10-18T11:03:34.311Z,24.16
2022-10-18T11:04:38.822Z,23.53
2022-10-18T11:05:47.296Z,23.21
2022-10-18T11:07:16.798Z,23.05
2022-10-18T11:08:36.028Z,24.01
2022-10-18T11:09:50.914Z,24.46
2022-10-18T11:11:03.318Z,24.62
2022-10-18T11:12:17.603Z,25.17
2022-10-18T11:13:28.600Z,24.48
2022-10-18T11:14:39.188Z,25.23
2022-10-18T11:15:47.775Z,25.71
2022-10-18T11:17:15.318Z,25.22
2022-10-18T11:18:24.836Z,24.91
2022-10-18T11:19:57.746Z,25.61
2022-10-18T11:21:18.804Z,25.83
2022-10-18T11:22:26.368Z,25.39
2022-10-18T11:23:33.596Z,24.95
2022-10-18T11:24:36.531Z,24.97
2022-10-18T11:25:42.046Z,25.30
2022-10-18T11:27:01.769Z,25.07
2022-10-18T11:28:10.732Z,25.55
2022-10-18T11:29:15.968Z,25.47
2022-10-18T11:30:44.214Z,25.33
2022-10-18T11:31:56.114Z,24.88
2022-10-18T11:33:56.398Z,25.37
2022-10-18T11:35:22.752Z,26.20
2022-10-18T11:36:36.576Z,25.89
2022-10-18T11:38:19.301Z,26.01
2022-10-18T11:39:27.784Z,26.43
2022-10-18T11:40:33.647Z,26.07
2022-10-18T11:41:47.676Z,25.14
2022-10-18T11:43:01.887Z,24.74
2022-10-18T11:44:16.485Z,25.11
2022-10-18T11:45:47.066Z,24.57
2022-10-18T11:46:49.526Z,24.91
2022-10-18T11:48:08.505Z,25.21
2022-10-18T11:49:17.931Z,24.84
2022-10-18T11:50:57.631Z,24.90
2022-10-18T11:52:13.713Z,25.49
2022-10-18T11:53:48.387Z,25.42
2022-10-18T11:55:03.435Z,25.45
2022-10-18T11:56:37.431Z,25.66
2022-10-18T11:58:08.132Z,25.31
2022-10-18T11:59:29.065Z,24.89
2022-10-18T12:01:06.831Z,24.63
2022-10-18T12:02:40.253Z,23.87
2022-10-18T12:03:42.861Z,23.84
2022-10-18T12:05:05.135Z,24.20
2022-10-18T12:06:20.954Z,23.94
2022-10-18T12:07:27.778Z,23.56
2022-10-18T12:08:40.112Z,23.97
2022-10-18T12:09:46.002Z,24.63
2022-10-18T12:11:04.185Z,24.37
2022-10-18T12:12:30.463Z,24.60
2022-10-18T12:13:39.661Z,25.17
2022-10-18T12:15:07.379Z,24.40
2022-10-18T12:16:11.092Z,24.82
2022-10-18T12:19:02.773Z,24.66
2022-10-18T12:20:16.272Z,24.78
2022-10-18T12:21:25.495Z,24.35
2022-10-18T12:22:50.306Z,24.29
2022-10-18T12:23:56.684Z,24.54
2022-10-18T12:24:59.916Z,24.45
2022-10-18T12:26:06.196Z,25.00
2022-10-18T12:27:14.060Z,25.24
2022-10-18T12:28:35.115Z,25.38
2022-10-18T12:29:50.678Z,25.42
2022-10-18T12:31:02.519Z,24.67
2022-10-18T12:32:14.728Z,24.66
2022-10-18T12:33:28.689Z,24.82
2022-10-18T12:34:49.341Z,24.67
2022-10-18T12:36:13.442Z,23.86
2022-10-18T12:37:43.377Z,24.50
2022-10-18T12:38:50.463Z,23.93
2022-10-18T12:40:10.506Z,24.00
2022-10-18T12:41:26.827Z,24.41
2022-10-18T12:42:32.497Z,24.35
2022-10-18T12:43:38.672Z,24.24
2022-10-18T12:44:41.308Z,24.28
2022-10-18T12:46:12.173Z,23.80
2022-10-18T12:47:25.526Z,23.93
2022-10-18T12:48:34.775Z,25.21
2022-10-18T12:49:41.457Z,25.76
2022-10-18T12:51:04.250Z,24.86
2022-10-18T12:52:21.273Z,25.07
2022-10-18T12:53:28.212Z,24.84
2022-10-18T12:54:34.701Z,23.91
2022-10-18T12:56:51.149Z,24.29
2022-10-18T12:57:53.965Z,24.35
2022-10-18T12:59:15.583Z,24.07
2022-10-18T13:00:30.446Z,23.68
2022-10-18T13:01:51.195Z,24.12
2022-10-18T13:03:12.185Z,23.01
2022-10-18T13:04:33.719Z,23.14
2022-10-18T13:05:53.291Z,23.73
2022-10-18T13:06:59.849Z,23.71
2022-10-18T13:08:31.868Z,23.79
2022-10-18T13:09:37.939Z,23.90
2022-10-18T13:10:41.924Z,24.03
2022-10-18T13:11:45.191Z,23.05
2022-10-18T13:13:38.727Z,23.15
2022-10-18T13:15:12.486Z,23.00
2022-10-18T13:16:45.950Z,24.15
2022-10-18T13:17:55.413Z,24.15
2022-10-18T13:19:19.402Z,23.95
2022-10-18T13:20:42.342Z,23.75
2022-10-18T13:22:00.205Z,23.62
2022-10-18T13:23:37.125Z,24.29
2022-10-18T13:25:02.485Z,23.89
2022-10-18T13:26:11.239Z,22.88
2022-10-18T13:27:35.889Z,23.10
2022-10-18T13:29:10.610Z,23.14
2022-10-18T13:30:32.491Z,22.83
2022-10-18T13:31:52.901Z,23.17
2022-10-18T13:33:13.989Z,23.52
2022-10-18T13:34:25.211Z,23.54
2022-10-18T13:35:49.628Z,22.83
2022-10-18T13:37:10.512Z,22.47
2022-10-18T13:38:34.873Z,22.23
2022-10-18T13:39:39.963Z,22.44
2022-10-18T13:40:42.620Z,22.64
2022-10-18T13:41:49.961Z,22.44
2022-10-18T13:42:53.707Z,22.82
2022-10-18T13:44:00.711Z,23.01
2022-10-18T13:45:31.652Z,23.31
2022-10-18T13:46:34.284Z,23.14
2022-10-18T13:47:38.299Z,22.61
2022-10-18T13:48:41.518Z,22.60
2022-10-18T13:50:21.363Z,22.38
2022-10-18T13:52:01.804Z,22.50
2022-10-18T13:53:25.756Z,22.67
2022-10-18T13:54:40.448Z,22.59
2022-10-18T13:56:15.253Z,22.34
2022-10-18T13:57:39.243Z,21.97
2022-10-18T13:59:23.726Z,22.25
2022-10-18T14:00:48.201Z,21.90
2022-10-18T14:02:10.690Z,22.05
2022-10-18T14:03:56.193Z,21.96
2022-10-18T14:05:25.136Z,21.65
2022-10-18T14:06:42.136Z,22.00
2022-10-18T14:07:46.372Z,21.87
2022-10-18T14:09:09.580Z,21.79
2022-10-18T14:10:50.308Z,21.74
2022-10-18T14:12:37.013Z,22.36
2022-10-18T14:13:52.830Z,21.86
2022-10-18T14:15:03.553Z,21.71
2022-10-18T14:16:22.660Z,21.62
2022-10-18T14:17:34.433Z,21.77
2022-10-18T14:18:43.089Z,21.44
2022-10-18T14:20:24.773Z,21.85
2022-10-18T14:21:38.463Z,21.94
2022-10-18T14:23:05.342Z,22.14
2022-10-18T14:24:20.740Z,22.24
2022-10-18T14:25:32.586Z,22.29
2022-10-18T14:26:35.298Z,21.89
2022-10-18T14:27:38.001Z,21.77
2022-10-18T14:29:00.284Z,21.52
2022-10-18T14:30:20.003Z,21.67
2022-10-18T14:31:22.774Z,22.14
2022-10-18T14:32:27.348Z,21.99
2022-10-18T14:33:39.037Z,21.94
2022-10-18T14:34:44.359Z,21.65
2022-10-18T14:35:59.842Z,21.50
2022-10-18T14:37:02.682Z,21.56
2022-10-18T14:38:13.907Z,21.25
2022-10-18T14:39:27.651Z,21.35
2022-10-18T14:40:33.409Z,21.29
2022-10-18T14:41:47.476Z,21.18
2022-10-18T14:42:50.177Z,21.07
2022-10-18T14:44:09.989Z,21.43
2022-10-18T14:45:19.733Z,21.26
2022-10-18T14:46:30.027Z,20.92
2022-10-18T14:47:37.503Z,20.90
2022-10-18T14:48:40.403Z,21.00
2022-10-18T14:49:44.955Z,20.88
2022-10-18T14:50:59.604Z,21.07
2022-10-18T14:52:02.394Z,21.17
2022-10-18T14:53:07.665Z,20.64
2022-10-18T14:54:16.886Z,20.36
2022-10-18T14:55:33.233Z,20.70
2022-10-18T14:56:41.620Z,20.72
2022-10-18T14:57:45.807Z,20.77
2022-10-18T14:58:52.518Z,20.58
2022-10-18T15:00:02.151Z,20.72
2022-10-18T15:01:05.440Z,20.46
2022-10-18T15:02:17.834Z,20.26
2022-10-18T15:03:21.817Z,20.44
2022-10-18T15:04:32.829Z,20.54